createdAt,value
2022-10-18T00:00:20.896Z,96855.59
2022-10-18T00:02:47.975Z,96859.09
2022-10-18T00:05:15.077Z,96867.25
2022-10-18T00:07:42.159Z,96875.69
2022-10-18T00:10:09.698Z,96884.22
2022-10-18T00:12:37.658Z,96885.41
2022-10-18T00:15:06.813Z,96880.78
2022-10-18T00:17:35.507Z,96875.53
2022-10-18T00:20:03.685Z,96875.06
2022-10-18T00:22:31.094Z,96900.84
2022-10-18T00:24:58.297Z,96900.47
2022-10-18T00:27:25.456Z,96917.91
2022-10-18T00:29:53.514Z,96926.69
2022-10-18T00:32:20.783Z,96941.00
2022-10-18T00:34:48.095Z,96957.19
2022-10-18T00:37:15.422Z,96937.72
2022-10-18T00:39:42.717Z,96942.50
2022-10-18T00:42:32.194Z,96921.50
2022-10-18T00:45:26.432Z,96919.53
2022-10-18T00:48:00.712Z,96934.59
2022-10-18T00:50:31.624Z,96944.91
2022-10-18T00:53:03.497Z,96939.31
2022-10-18T00:55:32.970Z,96930.56
2022-10-18T00:58:00.305Z,96914.81
2022-10-18T01:00:27.357Z,96908.88
2022-10-18T01:02:54.411Z,96902.31
2022-10-18T01:05:21.547Z,96911.81
2022-10-18T01:07:58.985Z,96914.59
2022-10-18T01:10:41.010Z,96908.63
2022-10-18T01:13:41.936Z,96921.25
2022-10-18T01:16:26.251Z,96914.13
2022-10-18T01:19:02.002Z,96893.50
2022-10-18T01:21:48.100Z,96894.25
2022-10-18T01:24:25.119Z,96890.28
2022-10-18T01:27:01.090Z,96883.91
2022-10-18T01:29:50.082Z,96871.34
2022-10-18T01:32:28.358Z,96885.66
2022-10-18T01:34:59.963Z,96883.22
2022-10-18T01:37:29.862Z,96859.44
2022-10-18T01:39:59.974Z,96858.59
2022-10-18T01:42:27.942Z,96853.81
2022-10-18T01:44:56.006Z,96857.88
2022-10-18T01:47:23.763Z,96845.94
2022-10-18T01:50:00.493Z,96841.97
2022-10-18T01:52:27.836Z,96849.44
2022-10-18T01:54:55.929Z,96851.56
2022-10-18T01:57:41.815Z,96845.63
2022-10-18T02:00:25.733Z,96848.34
2022-10-18T02:03:06.760Z,96856.38
2022-10-18T02:05:54.261Z,96855.16
2022-10-18T02:08:31.945Z,96846.78
2022-10-18T02:11:04.348Z,96838.84
2022-10-18T02:13:54.082Z,96832.53
2022-10-18T02:16:35.807Z,96832.47
2022-10-18T02:19:10.937Z,96834.06
2022-10-18T02:21:40.711Z,96823.78
2022-10-18T02:24:09.842Z,96821.41
2022-10-18T02:26:37.125Z,96822.19
2022-10-18T02:29:04.538Z,96821.41
2022-10-18T02:31:39.159Z,96821.19
2022-10-18T02:34:18.686Z,96828.78
2022-10-18T02:36:51.102Z,96840.59
2022-10-18T02:39:26.101Z,96838.25
2022-10-18T02:41:54.307Z,96842.59
2022-10-18T02:44:21.559Z,96842.53
2022-10-18T02:46:48.693Z,96843.75
2022-10-18T02:49:15.972Z,96844.50
2022-10-18T02:51:43.122Z,96837.38
2022-10-18T02:54:10.377Z,96850.16
2022-10-18T02:56:37.464Z,96860.41
2022-10-18T02:59:07.233Z,96846.91
2022-10-18T03:01:36.162Z,96839.34
2022-10-18T03:04:04.325Z,96847.28
2022-10-18T03:06:32.185Z,96854.78
2022-10-18T03:08:59.373Z,96852.44
2022-10-18T03:11:26.448Z,96857.22
2022-10-18T03:13:53.501Z,96857.63
2022-10-18T03:16:20.533Z,96865.94
2022-10-18T03:18:47.631Z,96861.94
2022-10-18T03:21:14.674Z,96854.84
2022-10-18T03:23:42.223Z,96849.28
2022-10-18T03:26:10.135Z,96850.00
2022-10-18T03:28:37.284Z,96846.44
2022-10-18T03:31:04.975Z,96846.47
2022-10-18T03:33:32.669Z,96841.28
2022-10-18T03:36:00.045Z,96836.97
2022-10-18T03:38:27.332Z,96836.25
2022-10-18T03:40:54.396Z,96847.66
2022-10-18T03:43:21.554Z,96848.03
2022-10-18T03:45:48.771Z,96845.72
2022-10-18T03:48:15.839Z,96844.47
2022-10-18T03:50:43.601Z,96844.88
2022-10-18T03:53:10.661Z,96850.81
2022-10-18T03:55:38.333Z,96861.97
2022-10-18T03:58:05.845Z,96869.44
2022-10-18T04:00:32.956Z,96860.72
2022-10-18T04:03:00.081Z,96859.56
2022-10-18T04:05:30.518Z,96865.47
2022-10-18T04:07:58.162Z,96864.28
2022-10-18T04:10:25.800Z,96877.84
2022-10-18T04:12:52.849Z,96896.78
2022-10-18T04:15:20.437Z,96881.75
2022-10-18T04:17:47.580Z,96885.69
2022-10-18T04:20:14.709Z,96893.59
2022-10-18T04:22:41.949Z,96880.94
2022-10-18T04:25:09.241Z,96873.84
2022-10-18T04:27:37.275Z,96877.78
2022-10-18T04:30:04.764Z,96886.50
2022-10-18T04:32:31.889Z,96887.28
2022-10-18T04:34:58.986Z,96888.88
2022-10-18T04:37:26.064Z,96887.31
2022-10-18T04:39:53.849Z,96890.84
2022-10-18T04:42:21.987Z,96880.94
2022-10-18T04:44:49.170Z,96885.31
2022-10-18T04:47:16.728Z,96883.34
2022-10-18T04:49:44.120Z,96878.19
2022-10-18T04:52:11.481Z,96877.81
2022-10-18T04:54:38.535Z,96891.25
2022-10-18T04:57:05.787Z,96891.25
2022-10-18T04:59:32.867Z,96888.44
2022-10-18T05:02:00.120Z,96878.16
2022-10-18T05:04:27.236Z,96879.31
2022-10-18T05:06:54.315Z,96869.03
2022-10-18T05:09:24.486Z,96869.81
2022-10-18T05:11:51.702Z,96873.41
2022-10-18T05:14:18.928Z,96873.78
2022-10-18T05:16:46.014Z,96876.97
2022-10-18T05:19:13.121Z,96873.06
2022-10-18T05:21:40.277Z,96862.75
2022-10-18T05:24:07.413Z,96859.16
2022-10-18T05:26:34.531Z,96850.88
2022-10-18T05:29:01.718Z,96846.97
2022-10-18T05:31:28.857Z,96848.53
2022-10-18T05:33:55.907Z,96845.38
2022-10-18T05:36:23.011Z,96862.75
2022-10-18T05:38:50.106Z,96858.41
2022-10-18T05:41:17.173Z,96865.94
2022-10-18T05:43:44.215Z,96875.03
2022-10-18T05:46:15.467Z,96889.66
2022-10-18T05:48:44.461Z,96902.28
2022-10-18T05:51:11.962Z,96899.09
2022-10-18T05:53:39.012Z,96914.91
2022-10-18T05:56:07.159Z,96915.75
2022-10-18T05:58:34.656Z,96907.06
2022-10-18T06:01:02.648Z,96903.13
2022-10-18T06:03:30.727Z,96902.31
2022-10-18T06:06:09.843Z,96908.28
2022-10-18T06:08:38.229Z,96915.75
2022-10-18T06:11:19.720Z,96914.97
2022-10-18T06:13:48.531Z,96926.03
2022-10-18T06:16:18.367Z,96917.75
2022-10-18T06:18:49.831Z,96925.25
2022-10-18T06:21:18.015Z,96924.47
2022-10-18T06:23:51.923Z,96931.97
2022-10-18T06:26:19.723Z,96950.50
2022-10-18T06:28:47.055Z,96951.69
2022-10-18T06:31:14.855Z,96956.03
2022-10-18T06:33:41.953Z,96957.25
2022-10-18T06:36:22.201Z,96956.91
2022-10-18T06:38:50.027Z,96957.28
2022-10-18T06:41:19.123Z,96956.91
2022-10-18T06:44:13.389Z,96957.66
2022-10-18T06:46:41.510Z,96951.34
2022-10-18T06:49:08.820Z,96956.09
2022-10-18T06:51:36.487Z,96954.13
2022-10-18T06:54:17.623Z,96940.28
2022-10-18T06:56:45.762Z,96952.91
2022-10-18T06:59:12.851Z,96956.09
2022-10-18T07:01:39.983Z,96969.56
2022-10-18T07:04:07.357Z,96971.94
2022-10-18T07:06:34.450Z,96977.47
2022-10-18T07:09:03.065Z,96979.84
2022-10-18T07:11:30.422Z,96975.09
2022-10-18T07:14:04.623Z,96981.03
2022-10-18T07:16:33.220Z,96983.00
2022-10-18T07:19:00.299Z,96993.25
2022-10-18T07:21:27.453Z,96997.19
2022-10-18T07:23:54.852Z,97011.38
2022-10-18T07:26:28.977Z,97016.91
2022-10-18T07:29:08.298Z,97025.63
2022-10-18T07:31:36.267Z,97021.69
2022-10-18T07:34:07.753Z,97028.75
2022-10-18T07:36:34.860Z,97027.97
2022-10-18T07:39:02.262Z,97037.91
2022-10-18T07:41:30.023Z,97049.34
2022-10-18T07:43:57.117Z,97036.75
2022-10-18T07:46:24.277Z,97049.03
2022-10-18T07:48:51.451Z,97048.56
2022-10-18T07:51:20.020Z,97047.03
2022-10-18T07:53:47.336Z,97046.97
2022-10-18T07:56:17.983Z,97054.09
2022-10-18T07:58:46.430Z,97051.75
2022-10-18T08:01:14.672Z,97054.16
2022-10-18T08:03:42.783Z,97049.47
2022-10-18T08:06:11.859Z,97043.13
2022-10-18T08:08:40.442Z,97047.06
2022-10-18T08:11:14.857Z,97055.00
2022-10-18T08:13:42.518Z,97047.84
2022-10-18T08:16:13.230Z,97056.97
2022-10-18T08:18:40.757Z,97047.09
2022-10-18T08:21:10.067Z,97037.53
2022-10-18T08:23:37.754Z,97036.00
2022-10-18T08:26:07.613Z,97032.78
2022-10-18T08:28:37.881Z,97027.22
2022-10-18T08:31:07.764Z,97020.06
2022-10-18T08:33:36.137Z,97019.72
2022-10-18T08:36:07.461Z,97012.19
2022-10-18T08:38:35.946Z,97018.53
2022-10-18T08:41:24.304Z,97016.03
2022-10-18T08:44:07.263Z,97015.25
2022-10-18T08:46:45.332Z,97017.28
2022-10-18T08:49:26.580Z,97008.00
2022-10-18T08:51:54.185Z,97016.31
2022-10-18T08:54:29.603Z,97022.69
2022-10-18T08:57:00.406Z,97023.75
2022-10-18T08:59:47.898Z,97023.91
2022-10-18T09:02:52.616Z,97025.50
2022-10-18T09:05:28.409Z,97018.31
2022-10-18T09:08:13.852Z,97031.13
2022-10-18T09:10:49.973Z,97034.72
2022-10-18T09:13:25.685Z,97045.03
2022-10-18T09:15:59.111Z,97037.41
2022-10-18T09:18:29.198Z,97040.66
2022-10-18T09:21:05.231Z,97038.72
2022-10-18T09:23:59.800Z,97044.66
2022-10-18T09:26:26.877Z,97043.00
2022-10-18T09:31:57.679Z,97039.63
2022-10-18T09:34:31.265Z,97041.22
2022-10-18T09:36:59.138Z,97044.06
2022-10-18T09:39:31.261Z,97045.28
2022-10-18T09:42:17.305Z,97039.75
2022-10-18T09:44:51.367Z,97037.00
2022-10-18T09:47:24.748Z,97044.41
2022-10-18T09:49:57.827Z,97042.78
2022-10-18T09:52:35.186Z,97039.63
2022-10-18T09:55:18.341Z,97043.78
2022-10-18T09:57:51.622Z,97042.00
2022-10-18T10:00:33.142Z,97042.38
2022-10-18T10:03:01.977Z,97047.66
2022-10-18T10:05:29.068Z,97050.00
2022-10-18T10:08:02.091Z,97051.47
2022-10-18T10:10:31.124Z,97045.09
2022-10-18T10:13:06.052Z,97053.38
2022-10-18T10:15:38.315Z,97044.09
2022-10-18T10:18:22.231Z,97043.19
2022-10-18T10:20:57.981Z,97056.94
2022-10-18T10:23:30.616Z,97049.69
2022-10-18T10:26:02.161Z,97059.09
2022-10-18T10:28:43.545Z,97059.59
2022-10-18T10:31:30.138Z,97050.94
2022-10-18T10:34:02.944Z,97062.41
2022-10-18T10:36:31.088Z,97061.56
2022-10-18T10:39:03.904Z,97062.34
2022-10-18T10:44:12.601Z,97064.72
2022-10-18T10:46:39.682Z,97074.50
2022-10-18T10:49:38.606Z,97079.34
2022-10-18T10:52:15.420Z,97080.16
2022-10-18T10:54:52.140Z,97080.19
2022-10-18T10:57:26.833Z,97088.16
2022-10-18T10:59:56.521Z,97081.03
2022-10-18T11:02:31.180Z,97083.44
2022-10-18T11:05:19.417Z,97086.63
2022-10-18T11:07:46.695Z,97088.16
2022-10-18T11:10:16.817Z,97078.66
2022-10-18T11:12:47.970Z,97077.78
2022-10-18T11:15:28.635Z,97074.09
2022-10-18T11:18:10.689Z,97074.88
2022-10-18T11:20:45.528Z,97079.59
2022-10-18T11:23:15.083Z,97075.13
2022-10-18T11:25:51.238Z,97076.69
2022-10-18T11:28:36.666Z,97079.19
2022-10-18T11:31:18.046Z,97074.31
2022-10-18T11:34:07.556Z,97073.44
2022-10-18T11:37:25.884Z,97081.44
2022-10-18T11:40:23.540Z,97080.28
2022-10-18T11:43:12.096Z,97083.91
2022-10-18T11:46:05.043Z,97087.03
2022-10-18T11:48:53.778Z,97082.16
2022-10-18T11:51:33.963Z,97087.50
2022-10-18T11:54:33.467Z,97081.38
2022-10-18T11:57:37.828Z,97075.88
2022-10-18T12:03:31.997Z,97061.41
2022-10-18T12:06:05.019Z,97066.38
2022-10-18T12:08:46.857Z,97057.00
2022-10-18T12:11:53.548Z,97044.91
2022-10-18T12:14:48.279Z,97047.00
2022-10-18T12:17:49.092Z,97048.38
2022-10-18T12:20:33.008Z,97041.25
2022-10-18T12:23:14.560Z,97037.53
2022-10-18T12:25:46.410Z,97024.69
2022-10-18T12:28:32.700Z,97017.66
2022-10-18T12:31:27.547Z,97023.53
2022-10-18T12:33:59.323Z,97018.72
2022-10-18T12:36:52.131Z,97024.41
2022-10-18T12:39:50.454Z,97021.94
2022-10-18T12:42:32.215Z,97019.06
2022-10-18T12:45:06.130Z,97023.69
2022-10-18T12:47:33.589Z,97025.78
2022-10-18T12:50:05.398Z,97029.19
2022-10-18T12:52:37.037Z,97018.06
2022-10-18T12:55:28.398Z,97024.72
2022-10-18T12:57:58.230Z,97025.75
2022-10-18T13:00:31.387Z,97026.59
2022-10-18T13:03:13.594Z,97026.53
2022-10-18T13:05:54.392Z,97027.25
2022-10-18T13:08:31.542Z,97021.53
2022-10-18T13:11:01.333Z,97025.16
2022-10-18T13:13:41.667Z,97022.63
2022-10-18T13:16:44.473Z,97025.25
2022-10-18T13:19:14.420Z,97025.59
2022-10-18T13:21:41.618Z,97027.59
2022-10-18T13:24:37.519Z,97031.81
2022-10-18T13:27:31.085Z,97033.28
2022-10-18T13:30:28.936Z,97036.63
2022-10-18T13:33:13.894Z,97035.53
2022-10-18T13:35:54.676Z,97031.25
2022-10-18T13:38:36.872Z,97031.25
2022-10-18T13:41:25.771Z,97039.13
2022-10-18T13:43:53.082Z,97038.25
2022-10-18T13:46:20.821Z,97044.63
2022-10-18T13:48:52.624Z,97043.63
2022-10-18T13:51:35.506Z,97048.38
2022-10-18T13:54:08.485Z,97045.13
2022-10-18T13:56:49.736Z,97039.84
2022-10-18T13:59:26.140Z,97048.53
2022-10-18T14:02:30.695Z,97043.31
2022-10-18T14:05:24.619Z,97037.91
2022-10-18T14:08:00.112Z,97038.13
2022-10-18T14:11:00.881Z,97050.34
2022-10-18T14:13:38.698Z,97047.13
2022-10-18T14:16:19.458Z,97057.41
2022-10-18T14:18:51.263Z,97055.59
2022-10-18T14:21:31.467Z,97040.41
2022-10-18T14:23:58.854Z,97046.81
2022-10-18T14:26:29.088Z,97054.50
2022-10-18T14:29:15.329Z,97047.47
2022-10-18T14:31:49.646Z,97060.59
2022-10-18T14:34:16.749Z,97054.75
2022-10-18T14:36:47.471Z,97052.06
2022-10-18T14:39:24.170Z,97052.75
2022-10-18T14:41:53.611Z,97061.63
2022-10-18T14:44:25.459Z,97050.47
2022-10-18T14:46:55.457Z,97059.09
2022-10-18T14:49:22.603Z,97059.09
2022-10-18T14:51:55.771Z,97063.09
2022-10-18T14:54:36.150Z,97054.47
2022-10-18T14:57:05.567Z,97055.31
2022-10-18T14:59:34.266Z,97056.09
2022-10-18T15:02:05.332Z,97055.63
2022-10-18T15:04:35.219Z,97051.06
2022-10-18T15:07:05.863Z,97035.91
2022-10-18T15:09:35.141Z,97036.06
2022-10-18T15:12:03.336Z,97031.72
2022-10-18T15:14:31.439Z,97033.28
2022-10-18T15:17:22.422Z,97026.97
2022-10-18T15:20:01.796Z,97024.25
2022-10-18T15:22:33.287Z,97014.94
2022-10-18T15:25:22.362Z,97015.94
2022-10-18T15:27:51.973Z,97016.28
2022-10-18T15:30:41.141Z,97021.81
2022-10-18T15:33:11.415Z,97020.44
2022-10-18T15:35:39.469Z,97009.38
2022-10-18T15:38:27.893Z,97010.28
2022-10-18T15:40:55.493Z,97018.38
2022-10-18T15:43:25.608Z,97014.47
2022-10-18T15:46:06.411Z,97016.22
2022-10-18T15:48:38.753Z,97012.66
2022-10-18T15:51:26.537Z,97011.88
2022-10-18T15:53:54.639Z,97013.19
2022-10-18T15:56:33.979Z,97009.09
2022-10-18T15:59:06.944Z,97012.84
2022-10-18T16:01:42.589Z,97021.09
2022-10-18T16:04:29.944Z,97018.63
2022-10-18T16:06:57.994Z,97010.59
2022-10-18T16:09:28.428Z,97016.25
2022-10-18T16:11:57.419Z,97008.53
2022-10-18T16:14:25.491Z,97008.81
2022-10-18T16:16:55.403Z,97014.97
2022-10-18T16:19:22.752Z,97008.47
2022-10-18T16:21:51.381Z,97011.28
2022-10-18T16:24:19.462Z,97010.91
2022-10-18T16:26:47.009Z,97017.56
2022-10-18T16:29:19.876Z,97019.75
2022-10-18T16:31:47.514Z,97005.50
2022-10-18T16:34:14.699Z,97005.44
2022-10-18T16:36:41.774Z,97019.41
2022-10-18T16:39:15.866Z,97014.66
2022-10-18T16:41:46.929Z,97022.03
2022-10-18T16:44:14.278Z,97017.03
2022-10-18T16:46:42.339Z,97013.56
2022-10-18T16:51:53.675Z,97022.41
2022-10-18T16:54:21.228Z,97024.44
2022-10-18T16:56:49.920Z,97022.88
2022-10-18T16:59:29.382Z,97025.06
2022-10-18T17:01:56.967Z,97032.41
2022-10-18T17:04:24.049Z,97047.53
2022-10-18T17:06:52.560Z,97043.69
2022-10-18T17:09:19.566Z,97055.38
2022-10-18T17:11:46.630Z,97046.94
2022-10-18T17:14:13.685Z,97054.41
2022-10-18T17:16:43.596Z,97054.28
2022-10-18T17:19:12.809Z,97051.94
2022-10-18T17:21:40.193Z,97049.84
2022-10-18T17:24:07.269Z,97062.44
2022-10-18T17:26:34.406Z,97052.09
2022-10-18T17:29:05.573Z,97062.00
2022-10-18T17:31:33.008Z,97061.56
2022-10-18T17:34:01.637Z,97065.06
2022-10-18T17:36:32.617Z,97061.03
2022-10-18T17:38:59.715Z,97073.53
2022-10-18T17:41:27.012Z,97087.84
2022-10-18T17:43:54.128Z,97092.97
2022-10-18T17:46:21.267Z,97091.38
2022-10-18T17:48:48.363Z,97093.75
2022-10-18T17:51:16.994Z,97086.53
2022-10-18T17:53:44.481Z,97085.72
2022-10-18T17:56:12.507Z,97091.28
2022-10-18T17:58:43.078Z,97084.25
2022-10-18T18:01:15.985Z,97085.06
2022-10-18T18:03:43.240Z,97088.22
2022-10-18T18:06:13.320Z,97085.81
2022-10-18T18:08:40.484Z,97088.19
2022-10-18T18:11:07.609Z,97094.56
2022-10-18T18:13:34.896Z,97100.88
2022-10-18T18:16:17.496Z,97105.97
2022-10-18T18:18:48.462Z,97109.97
2022-10-18T18:21:15.563Z,97109.59
2022-10-18T18:23:43.186Z,97114.31
2022-10-18T18:26:10.622Z,97113.53
2022-10-18T18:28:37.875Z,97111.94
2022-10-18T18:31:14.744Z,97119.03
2022-10-18T18:33:42.881Z,97111.94
2022-10-18T18:36:10.496Z,97107.22
2022-10-18T18:38:39.618Z,97106.00
2022-10-18T18:41:07.921Z,97107.97
2022-10-18T18:43:36.057Z,97102.84
2022-10-18T18:46:04.074Z,97104.84
2022-10-18T18:48:33.186Z,97104.06
2022-10-18T18:51:01.175Z,97113.94
2022-10-18T18:53:29.698Z,97111.09
2022-10-18T18:56:05.505Z,97113.41
2022-10-18T18:58:34.914Z,97111.41
2022-10-18T19:01:07.923Z,97114.59
2022-10-18T19:03:35.982Z,97113.47
2022-10-18T19:06:05.696Z,97115.47
2022-10-18T19:08:35.371Z,97109.53
2022-10-18T19:11:06.791Z,97117.44
2022-10-18T19:13:36.463Z,97105.53
2022-10-18T19:16:25.558Z,97103.09
2022-10-18T19:19:07.444Z,97102.34
2022-10-18T19:21:36.729Z,97103.91
2022-10-18T19:24:25.300Z,97099.16
2022-10-18T19:26:59.985Z,97101.53
2022-10-18T19:29:38.041Z,97099.13
2022-10-18T19:32:08.360Z,97099.03
2022-10-18T19:34:35.740Z,97104.25
2022-10-18T19:37:03.261Z,97105.38
2022-10-18T19:39:33.276Z,97106.16
2022-10-18T19:42:03.240Z,97101.38
2022-10-18T19:44:32.268Z,97103.00
2022-10-18T19:46:59.885Z,97098.25
2022-10-18T19:49:28.533Z,97099.00
2022-10-18T19:51:56.404Z,97093.88
2022-10-18T19:54:24.556Z,97093.66
2022-10-18T19:56:51.589Z,97096.50
2022-10-18T19:59:19.435Z,97101.59
2022-10-18T20:01:46.608Z,97103.59
2022-10-18T20:04:14.229Z,97103.66
2022-10-18T20:06:41.703Z,97102.47
2022-10-18T20:09:13.375Z,97087.06
2022-10-18T20:11:43.311Z,97093.59
2022-10-18T20:14:10.852Z,97096.34
2022-10-18T20:16:37.987Z,97099.81
2022-10-18T20:19:07.513Z,97095.53
2022-10-18T20:21:35.720Z,97084.66
2022-10-18T20:24:07.327Z,97089.94
2022-10-18T20:26:35.744Z,97093.03
2022-10-18T20:29:03.728Z,97089.47
2022-10-18T20:31:34.494Z,97079.53
2022-10-18T20:34:03.960Z,97089.03
2022-10-18T20:36:31.699Z,97091.34
2022-10-18T20:38:59.546Z,97085.06
2022-10-18T20:41:29.064Z,97083.94
2022-10-18T20:43:57.113Z,97081.22
2022-10-18T20:46:25.018Z,97077.22
2022-10-18T20:48:53.133Z,97082.75
2022-10-18T20:51:21.384Z,97079.84
2022-10-18T20:53:49.642Z,97085.91
2022-10-18T20:56:20.349Z,97084.22
2022-10-18T20:58:53.216Z,97082.66
2022-10-18T21:01:25.630Z,97077.09
2022-10-18T21:03:54.272Z,97076.72
2022-10-18T21:06:27.058Z,97069.88
2022-10-18T21:08:56.296Z,97062.91
2022-10-18T21:11:24.351Z,97057.50
2022-10-18T21:13:53.043Z,97054.28
2022-10-18T21:16:20.411Z,97048.66
2022-10-18T21:18:48.267Z,97050.19
2022-10-18T21:21:18.406Z,97049.88
2022-10-18T21:23:46.449Z,97045.09
2022-10-18T21:26:16.281Z,97052.63
2022-10-18T21:28:43.859Z,97046.31
2022-10-18T21:31:14.583Z,97043.63
2022-10-18T21:33:42.045Z,97034.38
2022-10-18T21:36:09.711Z,97038.75
2022-10-18T21:38:37.294Z,97034.53
2022-10-18T21:41:12.109Z,97039.88
2022-10-18T21:43:44.329Z,97038.31
2022-10-18T21:46:13.297Z,97034.91
2022-10-18T21:48:44.299Z,97039.91
2022-10-18T21:51:12.870Z,97038.53
2022-10-18T21:53:43.702Z,97047.69
2022-10-18T21:56:12.779Z,97042.59
2022-10-18T21:58:41.515Z,97045.97
2022-10-18T22:01:15.717Z,97054.84
2022-10-18T22:03:44.096Z,97053.44
2022-10-18T22:06:14.343Z,97047.16
2022-10-18T22:08:44.039Z,97053.09
2022-10-18T22:11:12.655Z,97051.81
2022-10-18T22:13:40.096Z,97059.59
2022-10-18T22:16:08.291Z,97057.28
2022-10-18T22:18:35.398Z,97051.03
2022-10-18T22:21:05.890Z,97044.34
2022-10-18T22:23:53.066Z,97047.81
2022-10-18T22:26:23.142Z,97052.47
2022-10-18T22:29:05.224Z,97048.63
2022-10-18T22:31:34.814Z,97054.28
2022-10-18T22:34:07.735Z,97056.66
2022-10-18T22:36:35.457Z,97047.56
2022-10-18T22:39:05.227Z,97049.97
2022-10-18T22:41:33.143Z,97047.56
2022-10-18T22:44:03.454Z,97055.97
2022-10-18T22:46:32.494Z,97041.75
2022-10-18T22:48:59.791Z,97046.56
2022-10-18T22:51:26.991Z,97038.53
2022-10-18T22:53:54.349Z,97043.19
2022-10-18T22:56:22.862Z,97047.94
2022-10-18T22:58:50.645Z,97057.28
2022-10-18T23:01:21.426Z,97047.94
2022-10-18T23:03:59.830Z,97050.22
2022-10-18T23:06:35.333Z,97049.56
2022-10-18T23:09:06.258Z,97054.22
2022-10-18T23:11:34.448Z,97053.75
2022-10-18T23:14:03.721Z,97057.25
2022-10-18T23:16:31.224Z,97046.31
2022-10-18T23:18:59.386Z,97044.72
2022-10-18T23:21:28.210Z,97051.84
2022-10-18T23:23:56.416Z,97043.22
2022-10-18T23:26:25.921Z,97036.16
2022-10-18T23:28:53.621Z,97040.72
2022-10-18T23:31:26.695Z,97045.53
2022-10-18T23:33:56.027Z,97040.78
2022-10-18T23:36:23.925Z,97034.59
2022-10-18T23:38:51.197Z,97034.53
2022-10-18T23:41:18.629Z,97031.50
2022-10-18T23:43:45.901Z,97025.06
2022-10-18T23:46:15.065Z,97025.84
2022-10-18T23:48:42.736Z,97025.88
2022-10-18T23:51:10.450Z,97033.81
2022-10-18T23:53:37.933Z,97032.59
2022-10-18T23:56:08.712Z,97040.75
2022-10-18T23:58:37.272Z,97029.44
